createdAt,value
2023-01-17T00:02:33.459Z,1.86
2023-01-17T00:05:54.348Z,1.89
2023-01-17T00:09:15.106Z,1.96
2023-01-17T00:12:18.077Z,1.94
2023-01-17T00:15:23.940Z,1.88
2023-01-17T00:18:25.843Z,1.88
2023-01-17T00:21:46.717Z,1.83
2023-01-17T00:25:06.991Z,1.91
2023-01-17T00:28:08.906Z,1.91
2023-01-17T00:31:14.799Z,1.84
2023-01-17T00:34:16.720Z,1.82
2023-01-17T00:37:18.436Z,1.81
2023-01-17T00:40:20.389Z,1.79
2023-01-17T00:43:41.750Z,1.80
2023-01-17T00:47:03.623Z,1.76
2023-01-17T00:50:24.507Z,1.77
2023-01-17T00:53:48.067Z,1.74
2023-01-17T00:57:08.729Z,1.74
2023-01-17T01:00:30.927Z,1.67
2023-01-17T01:03:52.684Z,1.58
2023-01-17T01:07:12.896Z,1.62
2023-01-17T01:10:34.278Z,1.58
2023-01-17T01:13:55.103Z,1.54
2023-01-17T01:17:15.859Z,1.53
2023-01-17T01:20:37.405Z,1.48
2023-01-17T01:23:58.236Z,1.37
2023-01-17T01:27:19.259Z,1.30
2023-01-17T01:30:40.145Z,1.38
2023-01-17T01:33:42.123Z,1.41
2023-01-17T01:36:45.342Z,1.40
2023-01-17T01:39:47.324Z,1.38
2023-01-17T01:42:51.208Z,1.45
2023-01-17T01:45:57.850Z,1.50
2023-01-17T01:49:03.418Z,1.48
2023-01-17T01:52:09.055Z,1.50
2023-01-17T01:55:16.646Z,1.59
2023-01-17T01:58:22.349Z,1.56
2023-01-17T02:01:24.617Z,1.58
2023-01-17T02:04:28.479Z,1.62
2023-01-17T02:07:36.701Z,1.62
2023-01-17T02:10:40.871Z,1.59
2023-01-17T02:13:43.428Z,1.61
2023-01-17T02:16:58.021Z,1.63
2023-01-17T02:20:28.661Z,1.64
2023-01-17T02:24:08.430Z,1.65
2023-01-17T02:27:24.716Z,1.67
2023-01-17T02:30:36.382Z,1.68
2023-01-17T02:33:45.730Z,1.67
2023-01-17T02:36:52.891Z,1.67
2023-01-17T02:40:02.821Z,1.68
2023-01-17T02:43:10.639Z,1.63
2023-01-17T02:46:13.997Z,1.66
2023-01-17T02:49:17.724Z,1.64
2023-01-17T02:52:34.313Z,1.68
2023-01-17T02:55:46.605Z,1.67
2023-01-17T02:59:04.920Z,1.64
2023-01-17T03:02:21.024Z,1.64
2023-01-17T03:05:28.391Z,1.60
2023-01-17T03:08:31.082Z,1.54
2023-01-17T03:11:33.089Z,1.61
2023-01-17T03:14:35.003Z,1.53
2023-01-17T03:17:40.984Z,1.62
2023-01-17T03:20:42.944Z,1.61
2023-01-17T03:23:44.964Z,1.49
2023-01-17T03:26:48.408Z,1.50
2023-01-17T03:29:50.575Z,1.43
2023-01-17T03:32:53.839Z,1.49
2023-01-17T03:35:58.172Z,1.41
2023-01-17T03:39:00.200Z,1.48
2023-01-17T03:42:02.198Z,1.45
2023-01-17T03:45:04.793Z,1.38
2023-01-17T03:48:08.095Z,1.42
2023-01-17T03:51:10.154Z,1.42
2023-01-17T03:54:12.295Z,1.39
2023-01-17T03:57:14.252Z,1.43
2023-01-17T04:00:17.181Z,1.31
2023-01-17T04:03:20.703Z,1.36
2023-01-17T04:06:22.660Z,1.42
2023-01-17T04:09:24.729Z,1.39
2023-01-17T04:12:26.835Z,1.31
2023-01-17T04:15:29.064Z,1.34
2023-01-17T04:18:32.574Z,1.34
2023-01-17T04:21:34.744Z,1.27
2023-01-17T04:24:36.561Z,1.33
2023-01-17T04:27:38.467Z,1.29
2023-01-17T04:30:40.662Z,1.30
2023-01-17T04:33:43.683Z,1.30
2023-01-17T04:36:45.679Z,1.28
2023-01-17T04:39:47.547Z,1.19
2023-01-17T04:42:49.392Z,1.19
2023-01-17T04:45:55.302Z,1.23
2023-01-17T04:49:00.515Z,1.20
2023-01-17T04:52:02.350Z,1.09
2023-01-17T04:55:04.766Z,1.00
2023-01-17T04:58:06.757Z,1.01
2023-01-17T05:01:09.922Z,0.94
2023-01-17T05:04:13.460Z,0.74
2023-01-17T05:07:16.041Z,0.65
2023-01-17T05:10:18.168Z,0.62
2023-01-17T05:13:20.248Z,0.53
2023-01-17T05:16:22.318Z,0.38
2023-01-17T05:19:26.754Z,0.33
2023-01-17T05:22:28.688Z,0.30
2023-01-17T05:25:32.066Z,0.27
2023-01-17T05:28:34.107Z,0.28
2023-01-17T05:31:36.321Z,0.27
2023-01-17T05:34:39.385Z,0.21
2023-01-17T05:37:41.372Z,0.11
2023-01-17T05:40:43.494Z,0.15
2023-01-17T05:43:45.615Z,0.13
2023-01-17T05:46:47.411Z,0.17
2023-01-17T05:49:50.637Z,0.17
2023-01-17T05:52:54.276Z,0.20
2023-01-17T05:55:56.210Z,0.17
2023-01-17T05:58:58.523Z,0.20
2023-01-17T06:02:00.147Z,0.21
2023-01-17T06:05:04.529Z,0.12
2023-01-17T06:08:06.794Z,0.17
2023-01-17T06:11:08.548Z,0.21
2023-01-17T06:14:11.518Z,0.21
2023-01-17T06:17:13.530Z,0.18
2023-01-17T06:20:17.466Z,0.19
2023-01-17T06:23:19.492Z,0.17
2023-01-17T06:26:21.536Z,0.12
2023-01-17T06:29:23.659Z,0.14
2023-01-17T06:35:28.928Z,0.08
2023-01-17T06:38:30.922Z,0.05
2023-01-17T06:41:33.451Z,0.08
2023-01-17T06:44:35.486Z,0.07
2023-01-17T06:47:38.448Z,0.05
2023-01-17T06:50:43.064Z,0.03
2023-01-17T06:53:45.740Z,-0.03
2023-01-17T06:56:47.624Z,0.08
2023-01-17T06:59:51.000Z,0.06
2023-01-17T07:02:53.113Z,0.04
2023-01-17T07:05:56.453Z,0.01
2023-01-17T07:08:59.105Z,0.04
2023-01-17T07:12:02.084Z,0.10
2023-01-17T07:15:05.107Z,-0.01
2023-01-17T07:18:07.934Z,0.01
2023-01-17T07:21:14.531Z,0.03
2023-01-17T07:24:16.423Z,0.02
2023-01-17T07:27:18.607Z,0.04
2023-01-17T07:30:20.441Z,0.08
2023-01-17T07:33:22.345Z,0.08
2023-01-17T07:36:26.022Z,-0.02
2023-01-17T07:39:28.216Z,0.00
2023-01-17T07:42:30.124Z,0.07
2023-01-17T07:45:32.117Z,0.03
2023-01-17T07:48:34.337Z,0.01
2023-01-17T07:51:38.204Z,0.09
2023-01-17T07:54:40.239Z,0.01
2023-01-17T07:57:42.254Z,0.00
2023-01-17T08:00:44.958Z,0.07
2023-01-17T08:03:50.249Z,0.08
2023-01-17T08:06:55.038Z,0.02
2023-01-17T08:09:57.032Z,0.06
2023-01-17T08:12:59.134Z,0.08
2023-01-17T08:16:03.953Z,0.04
2023-01-17T08:19:05.864Z,0.07
2023-01-17T08:22:09.508Z,0.13
2023-01-17T08:25:12.660Z,0.14
2023-01-17T08:28:15.892Z,0.03
2023-01-17T08:31:19.879Z,0.12
2023-01-17T08:34:22.506Z,0.13
2023-01-17T08:37:25.965Z,0.16
2023-01-17T08:40:28.057Z,0.16
2023-01-17T08:43:30.441Z,0.20
2023-01-17T08:46:32.983Z,0.18
2023-01-17T08:49:35.006Z,0.16
2023-01-17T08:52:38.488Z,0.18
2023-01-17T08:55:41.094Z,0.06
2023-01-17T08:58:43.215Z,0.17
2023-01-17T09:01:46.482Z,0.23
2023-01-17T09:04:49.748Z,0.30
2023-01-17T09:07:52.985Z,0.42
2023-01-17T09:10:56.578Z,0.52
2023-01-17T09:13:58.668Z,0.48
2023-01-17T09:17:00.954Z,0.57
2023-01-17T09:20:03.188Z,0.50
2023-01-17T09:23:06.201Z,0.74
2023-01-17T09:26:14.299Z,0.74
2023-01-17T09:29:17.936Z,0.78
2023-01-17T09:32:19.911Z,0.92
2023-01-17T09:35:22.061Z,0.85
2023-01-17T09:38:25.704Z,0.88
2023-01-17T09:41:30.573Z,0.92
2023-01-17T09:44:40.199Z,0.98
2023-01-17T09:47:44.357Z,0.95
2023-01-17T09:50:50.583Z,0.75
2023-01-17T09:53:55.127Z,0.65
2023-01-17T09:57:03.271Z,0.91
2023-01-17T10:00:17.528Z,0.94
2023-01-17T10:03:42.351Z,1.05
2023-01-17T10:06:58.526Z,1.05
2023-01-17T10:10:22.040Z,0.99
2023-01-17T10:13:36.865Z,1.06
2023-01-17T10:16:48.753Z,1.19
2023-01-17T10:20:04.270Z,1.32
2023-01-17T10:23:33.457Z,1.37
2023-01-17T10:26:38.430Z,1.25
2023-01-17T10:29:41.289Z,1.21
2023-01-17T10:32:48.047Z,1.17
2023-01-17T10:35:55.342Z,0.85
2023-01-17T10:39:01.269Z,0.96
2023-01-17T10:42:14.925Z,1.05
2023-01-17T10:45:21.329Z,1.02
2023-01-17T10:48:34.865Z,0.98
2023-01-17T10:51:50.836Z,0.86
2023-01-17T10:55:06.299Z,0.82
2023-01-17T10:58:12.443Z,0.84
2023-01-17T11:01:19.505Z,0.72
2023-01-17T11:04:29.825Z,0.88
2023-01-17T11:07:31.801Z,0.80
2023-01-17T11:10:37.993Z,0.92
2023-01-17T11:13:41.383Z,0.96
2023-01-17T11:16:43.834Z,1.02
2023-01-17T11:19:51.267Z,0.89
2023-01-17T11:23:07.589Z,0.91
2023-01-17T11:26:13.091Z,0.91
2023-01-17T11:29:30.621Z,0.89
2023-01-17T11:32:33.948Z,0.92
2023-01-17T11:35:38.353Z,1.04
2023-01-17T11:38:41.676Z,1.02
2023-01-17T11:41:45.428Z,1.03
2023-01-17T11:44:48.947Z,1.05
2023-01-17T11:48:12.557Z,0.94
2023-01-17T11:51:22.712Z,0.97
2023-01-17T11:54:28.487Z,0.95
2023-01-17T11:57:33.404Z,0.94
2023-01-17T12:00:46.157Z,0.95
2023-01-17T12:04:25.721Z,0.97
2023-01-17T12:07:38.229Z,0.81
2023-01-17T12:10:50.205Z,0.83
2023-01-17T12:14:06.129Z,0.84
2023-01-17T12:17:20.225Z,0.80
2023-01-17T12:20:30.499Z,0.72
2023-01-17T12:24:01.874Z,0.76
2023-01-17T12:27:13.929Z,0.69
2023-01-17T12:30:38.835Z,0.66
2023-01-17T12:33:50.624Z,0.67
2023-01-17T12:36:58.621Z,0.64
2023-01-17T12:40:11.171Z,0.96
2023-01-17T12:43:22.275Z,1.00
2023-01-17T12:46:28.994Z,1.01
2023-01-17T12:49:42.174Z,1.02
2023-01-17T12:52:53.800Z,0.99
2023-01-17T12:56:00.630Z,1.03
2023-01-17T12:59:12.225Z,1.24
2023-01-17T13:02:22.637Z,1.21
2023-01-17T13:05:33.219Z,1.43
2023-01-17T13:08:41.403Z,1.48
2023-01-17T13:11:49.895Z,1.30
2023-01-17T13:14:51.809Z,1.25
2023-01-17T13:17:59.480Z,1.21
2023-01-17T13:21:18.622Z,1.00
2023-01-17T13:24:36.322Z,0.97
2023-01-17T13:28:02.334Z,1.12
2023-01-17T13:31:44.846Z,1.22
2023-01-17T13:35:10.934Z,1.24
2023-01-17T13:38:37.475Z,1.17
2023-01-17T13:41:50.652Z,1.29
2023-01-17T13:44:52.877Z,1.36
2023-01-17T13:48:10.666Z,1.51
2023-01-17T13:51:12.869Z,1.61
2023-01-17T13:54:29.575Z,1.77
2023-01-17T13:57:40.065Z,1.77
2023-01-17T14:00:50.506Z,1.79
2023-01-17T14:04:04.566Z,1.78
2023-01-17T14:07:20.946Z,1.84
2023-01-17T14:10:30.758Z,1.81
2023-01-17T14:13:35.594Z,1.77
2023-01-17T14:16:37.656Z,1.81
2023-01-17T14:19:39.526Z,1.81
2023-01-17T14:22:48.452Z,1.80
2023-01-17T14:25:53.118Z,1.80
2023-01-17T14:28:58.121Z,1.87
2023-01-17T14:32:02.184Z,1.80
2023-01-17T14:35:05.539Z,1.82
2023-01-17T14:38:18.891Z,1.81
2023-01-17T14:41:24.702Z,1.71
2023-01-17T14:44:26.817Z,1.71
2023-01-17T14:47:31.829Z,1.69
2023-01-17T14:50:38.099Z,1.65
2023-01-17T14:53:40.183Z,1.58
2023-01-17T14:56:43.720Z,1.54
2023-01-17T14:59:46.359Z,1.43
2023-01-17T15:02:50.682Z,1.43
2023-01-17T15:05:55.232Z,1.32
2023-01-17T15:08:57.570Z,1.25
2023-01-17T15:12:02.796Z,1.25
2023-01-17T15:15:26.128Z,1.21
2023-01-17T15:18:30.037Z,1.02
2023-01-17T15:21:35.457Z,0.99
2023-01-17T15:24:43.442Z,0.89
2023-01-17T15:27:47.282Z,0.92
2023-01-17T15:31:08.821Z,0.81
2023-01-17T15:34:25.009Z,0.78
2023-01-17T15:37:32.665Z,0.70
2023-01-17T15:40:43.652Z,0.59
2023-01-17T15:43:47.090Z,0.58
2023-01-17T15:46:49.829Z,0.52
2023-01-17T15:49:52.953Z,0.48
2023-01-17T15:52:57.324Z,0.41
2023-01-17T15:56:00.391Z,0.37
2023-01-17T15:59:30.745Z,0.35
2023-01-17T16:02:42.933Z,0.15
2023-01-17T16:05:46.017Z,0.20
2023-01-17T16:08:52.330Z,0.20
2023-01-17T16:11:54.243Z,0.20
2023-01-17T16:15:11.181Z,0.18
2023-01-17T16:18:16.774Z,0.09
2023-01-17T16:21:29.850Z,0.11
2023-01-17T16:24:32.293Z,0.15
2023-01-17T16:27:34.245Z,0.09
2023-01-17T16:30:38.629Z,-0.02
2023-01-17T16:33:42.217Z,-0.01
2023-01-17T16:36:44.276Z,-0.06
2023-01-17T16:39:46.672Z,0.05
2023-01-17T16:42:48.977Z,-0.05
2023-01-17T16:45:54.096Z,-0.03
2023-01-17T16:48:56.268Z,-0.13
2023-01-17T16:51:59.284Z,-0.12
2023-01-17T16:55:01.589Z,-0.20
2023-01-17T16:58:05.951Z,-0.22
2023-01-17T17:01:17.836Z,-0.30
2023-01-17T17:04:20.326Z,-0.32
2023-01-17T17:07:22.969Z,-0.46
2023-01-17T17:10:25.385Z,-0.45
2023-01-17T17:13:27.331Z,-0.40
2023-01-17T17:16:30.876Z,-0.35
2023-01-17T17:19:33.771Z,-0.43
2023-01-17T17:22:35.850Z,-0.38
2023-01-17T17:25:37.927Z,-0.30
2023-01-17T17:28:39.996Z,-0.21
2023-01-17T17:31:43.807Z,-0.22
2023-01-17T17:34:46.203Z,-0.17
2023-01-17T17:37:48.097Z,-0.12
2023-01-17T17:40:50.034Z,-0.01
2023-01-17T17:43:53.392Z,-0.01
2023-01-17T17:46:56.942Z,-0.01
2023-01-17T17:49:59.532Z,-0.05
2023-01-17T17:53:01.468Z,-0.08
2023-01-17T17:56:04.558Z,0.01
2023-01-17T17:59:09.068Z,-0.04
2023-01-17T18:02:12.711Z,-0.11
2023-01-17T18:05:15.142Z,-0.25
2023-01-17T18:08:17.196Z,-0.30
2023-01-17T18:11:21.536Z,-0.33
2023-01-17T18:14:24.762Z,-0.39
2023-01-17T18:17:28.402Z,-0.64
2023-01-17T18:20:30.654Z,-0.71
2023-01-17T18:23:32.532Z,-0.69
2023-01-17T18:26:36.296Z,-0.73
2023-01-17T18:29:38.959Z,-0.84
2023-01-17T18:32:43.099Z,-0.84
2023-01-17T18:35:53.378Z,-0.96
2023-01-17T18:38:55.901Z,-0.97
2023-01-17T18:41:59.498Z,-0.96
2023-01-17T18:45:01.611Z,-0.98
2023-01-17T18:48:05.698Z,-0.98
2023-01-17T18:51:10.440Z,-1.03
2023-01-17T18:54:13.227Z,-1.01
2023-01-17T18:57:15.245Z,-1.02
2023-01-17T19:00:18.764Z,-1.06
2023-01-17T19:03:28.973Z,-1.08
2023-01-17T19:10:38.893Z,-1.10
2023-01-17T19:13:42.036Z,-1.21
2023-01-17T19:16:44.585Z,-1.26
2023-01-17T19:19:52.669Z,-1.39
2023-01-17T19:23:02.761Z,-1.34
2023-01-17T19:26:08.469Z,-1.23
2023-01-17T19:29:10.926Z,-1.27
2023-01-17T19:32:13.148Z,-1.26
2023-01-17T19:38:55.229Z,-1.31
2023-01-17T19:42:05.958Z,-1.34
2023-01-17T19:45:09.791Z,-1.29
2023-01-17T19:51:39.900Z,-1.29
2023-01-17T19:54:43.389Z,-1.21
2023-01-17T19:57:45.493Z,-1.19
2023-01-17T20:04:18.171Z,-1.36
2023-01-17T20:07:20.739Z,-1.35
2023-01-17T20:10:25.296Z,-1.37
2023-01-17T20:13:27.581Z,-1.41
2023-01-17T20:16:31.318Z,-1.49
2023-01-17T20:19:33.540Z,-1.52
2023-01-17T20:22:35.417Z,-1.46
2023-01-17T20:25:39.129Z,-1.55
2023-01-17T20:28:43.230Z,-1.59
2023-01-17T20:31:46.319Z,-1.58
2023-01-17T20:34:48.540Z,-1.59
2023-01-17T20:37:51.683Z,-1.56
2023-01-17T20:40:55.947Z,-1.72
2023-01-17T20:43:59.826Z,-1.68
2023-01-17T20:47:02.059Z,-1.70
2023-01-17T20:50:05.498Z,-1.74
2023-01-17T20:53:07.855Z,-1.71
2023-01-17T20:56:13.738Z,-1.77
2023-01-17T20:59:17.644Z,-1.80
2023-01-17T21:02:20.941Z,-1.72
2023-01-17T21:05:23.197Z,-1.74
2023-01-17T21:08:25.718Z,-1.71
2023-01-17T21:11:29.405Z,-1.77
2023-01-17T21:14:31.802Z,-1.80
2023-01-17T21:17:41.239Z,-1.91
2023-01-17T21:20:44.335Z,-1.77
2023-01-17T21:23:46.492Z,-1.81
2023-01-17T21:26:51.598Z,-1.78
2023-01-17T21:29:56.224Z,-1.85
2023-01-17T21:33:00.208Z,-2.01
2023-01-17T21:36:08.749Z,-1.95
2023-01-17T21:39:13.675Z,-1.96
2023-01-17T21:42:21.471Z,-1.90
2023-01-17T21:45:43.446Z,-1.72
2023-01-17T21:48:45.924Z,-1.92
2023-01-17T21:51:53.534Z,-1.89
2023-01-17T21:55:14.339Z,-1.99
2023-01-17T21:58:39.376Z,-1.98
2023-01-17T22:01:41.562Z,-2.00
2023-01-17T22:04:43.529Z,-2.02
2023-01-17T22:08:04.766Z,-2.18
2023-01-17T22:11:10.861Z,-2.14
2023-01-17T22:14:14.353Z,-2.10
2023-01-17T22:17:16.740Z,-2.21
2023-01-17T22:20:21.014Z,-2.22
2023-01-17T22:23:23.477Z,-2.17
2023-01-17T22:26:27.240Z,-2.20
2023-01-17T22:29:34.119Z,-2.16
2023-01-17T22:32:36.414Z,-2.14
2023-01-17T22:35:38.577Z,-2.14
2023-01-17T22:38:41.906Z,-2.18
2023-01-17T22:41:44.192Z,-2.38
2023-01-17T22:44:48.105Z,-2.27
2023-01-17T22:47:50.344Z,-2.31
2023-01-17T22:50:56.876Z,-2.37
2023-01-17T22:54:01.051Z,-2.29
2023-01-17T22:57:04.086Z,-2.27
2023-01-17T23:00:14.567Z,-2.26
2023-01-17T23:03:16.883Z,-2.26
2023-01-17T23:06:22.434Z,-2.24
2023-01-17T23:09:25.048Z,-2.31
2023-01-17T23:12:27.221Z,-2.29
2023-01-17T23:15:50.606Z,-2.27
2023-01-17T23:19:11.794Z,-2.27
2023-01-17T23:22:15.884Z,-2.29
2023-01-17T23:25:18.611Z,-2.37
2023-01-17T23:28:21.293Z,-2.33
2023-01-17T23:31:24.848Z,-2.36
2023-01-17T23:34:26.783Z,-2.43
2023-01-17T23:37:48.917Z,-2.42
2023-01-17T23:41:10.269Z,-2.34
2023-01-17T23:44:12.435Z,-2.34
2023-01-17T23:47:16.376Z,-2.32
2023-01-17T23:50:18.809Z,-2.34
2023-01-17T23:53:24.530Z,-2.38
2023-01-17T23:56:26.831Z,-2.39
2023-01-17T23:59:29.275Z,-2.49
